createdAt,value
2022-10-15T00:00:43.667Z,93.77
2022-10-15T00:03:10.212Z,92.75
2022-10-15T00:05:40.557Z,92.41
2022-10-15T00:08:07.973Z,92.95
2022-10-15T00:10:35.139Z,93.72
2022-10-15T00:15:38.555Z,92.06
2022-10-15T00:18:05.120Z,91.63
2022-10-15T00:20:31.701Z,92.20
2022-10-15T00:22:58.220Z,92.52
2022-10-15T00:25:24.678Z,93.23
2022-10-15T00:27:51.100Z,93.10
2022-10-15T00:30:17.643Z,93.99
2022-10-15T00:32:44.092Z,94.71
2022-10-15T00:35:10.621Z,93.80
2022-10-15T00:37:37.080Z,93.74
2022-10-15T00:40:03.822Z,93.64
2022-10-15T00:42:30.293Z,93.18
2022-10-15T00:44:58.907Z,92.54
2022-10-15T00:47:37.193Z,92.64
2022-10-15T00:50:24.102Z,93.56
2022-10-15T00:53:03.931Z,93.58
2022-10-15T00:55:34.390Z,93.74
2022-10-15T00:58:06.200Z,93.65
2022-10-15T01:00:33.539Z,92.74
2022-10-15T01:03:00.090Z,92.88
2022-10-15T01:05:27.247Z,92.52
2022-10-15T01:07:53.786Z,91.31
2022-10-15T01:10:20.991Z,91.54
2022-10-15T01:13:15.472Z,91.19
2022-10-15T01:15:50.351Z,91.41
2022-10-15T01:18:22.702Z,90.80
2022-10-15T01:21:01.270Z,90.21
2022-10-15T01:24:04.811Z,90.47
2022-10-15T01:26:53.126Z,90.23
2022-10-15T01:29:58.645Z,89.60
2022-10-15T01:32:31.319Z,90.74
2022-10-15T01:35:13.942Z,91.11
2022-10-15T01:37:54.187Z,91.07
2022-10-15T01:40:27.970Z,91.47
2022-10-15T01:42:59.526Z,91.18
2022-10-15T01:45:30.940Z,90.76
2022-10-15T01:48:02.447Z,90.47
2022-10-15T01:50:31.587Z,90.16
2022-10-15T01:52:59.425Z,90.78
2022-10-15T01:55:26.755Z,90.54
2022-10-15T01:57:55.579Z,92.10
2022-10-15T02:00:22.165Z,92.46
2022-10-15T02:02:48.606Z,92.06
2022-10-15T02:05:24.797Z,92.15
2022-10-15T02:08:10.886Z,91.07
2022-10-15T02:10:37.395Z,90.72
2022-10-15T02:13:23.310Z,91.68
2022-10-15T02:16:02.411Z,92.81
2022-10-15T02:18:38.096Z,94.10
2022-10-15T02:21:10.040Z,92.54
2022-10-15T02:23:59.086Z,92.21
2022-10-15T02:26:28.114Z,92.10
2022-10-15T02:28:57.120Z,91.16
2022-10-15T02:31:24.419Z,92.16
2022-10-15T02:33:52.500Z,92.44
2022-10-15T02:36:19.786Z,90.98
2022-10-15T02:38:47.172Z,90.61
2022-10-15T02:41:13.696Z,90.64
2022-10-15T02:43:40.987Z,90.92
2022-10-15T02:46:09.222Z,89.91
2022-10-15T02:48:35.706Z,89.61
2022-10-15T02:51:02.155Z,88.69
2022-10-15T02:53:28.568Z,87.74
2022-10-15T02:55:55.100Z,87.83
2022-10-15T02:58:24.364Z,88.38
2022-10-15T03:00:51.409Z,87.76
2022-10-15T03:03:19.181Z,87.56
2022-10-15T03:05:45.862Z,88.09
2022-10-15T03:08:12.409Z,87.87
2022-10-15T03:10:45.897Z,88.36
2022-10-15T03:13:15.503Z,88.94
2022-10-15T03:15:42.038Z,89.45
2022-10-15T03:18:08.768Z,89.11
2022-10-15T03:20:35.310Z,88.78
2022-10-15T03:23:01.744Z,88.78
2022-10-15T03:25:28.215Z,88.74
2022-10-15T03:27:54.721Z,88.41
2022-10-15T03:30:21.182Z,88.01
2022-10-15T03:32:48.124Z,88.93
2022-10-15T03:35:15.051Z,89.16
2022-10-15T03:37:41.747Z,90.15
2022-10-15T03:40:13.422Z,91.69
2022-10-15T03:42:41.574Z,93.62
2022-10-15T03:45:08.811Z,93.41
2022-10-15T03:47:35.596Z,94.20
2022-10-15T03:50:02.313Z,95.17
2022-10-15T03:52:28.797Z,94.76
2022-10-15T03:54:55.325Z,93.90
2022-10-15T03:57:21.876Z,92.60
2022-10-15T03:59:48.376Z,91.84
2022-10-15T04:02:14.907Z,91.09
2022-10-15T04:04:41.394Z,90.28
2022-10-15T04:07:07.848Z,89.46
2022-10-15T04:09:34.305Z,88.90
2022-10-15T04:12:00.804Z,89.04
2022-10-15T04:14:40.930Z,89.74
2022-10-15T04:17:07.829Z,90.39
2022-10-15T04:19:34.282Z,90.21
2022-10-15T04:22:01.224Z,91.55
2022-10-15T04:24:27.863Z,92.21
2022-10-15T04:26:54.400Z,93.25
2022-10-15T04:29:20.833Z,92.94
2022-10-15T04:31:47.315Z,92.76
2022-10-15T04:34:13.795Z,93.37
2022-10-15T04:36:40.274Z,94.26
2022-10-15T04:39:08.648Z,94.35
2022-10-15T04:41:37.446Z,95.14
2022-10-15T04:44:04.130Z,95.68
2022-10-15T04:46:30.595Z,94.84
2022-10-15T04:48:57.071Z,94.83
2022-10-15T04:51:24.470Z,93.70
2022-10-15T04:53:50.987Z,93.29
2022-10-15T04:56:21.272Z,93.01
2022-10-15T04:58:49.002Z,92.06
2022-10-15T05:01:18.353Z,91.20
2022-10-15T05:03:46.146Z,90.76
2022-10-15T05:06:20.105Z,91.10
2022-10-15T05:08:47.334Z,91.69
2022-10-15T05:11:18.960Z,91.22
2022-10-15T05:13:45.825Z,91.17
2022-10-15T05:16:17.673Z,90.52
2022-10-15T05:18:45.270Z,90.67
2022-10-15T05:21:12.614Z,89.35
2022-10-15T05:23:39.694Z,89.52
2022-10-15T05:26:10.251Z,89.67
2022-10-15T05:28:36.961Z,91.91
2022-10-15T05:31:18.843Z,91.75
2022-10-15T05:33:46.982Z,92.45
2022-10-15T05:36:19.913Z,92.35
2022-10-15T05:38:48.034Z,92.54
2022-10-15T05:41:15.042Z,92.59
2022-10-15T05:43:42.106Z,93.26
2022-10-15T05:46:09.054Z,92.56
2022-10-15T05:48:35.540Z,90.98
2022-10-15T05:51:06.606Z,90.45
2022-10-15T05:53:33.271Z,90.24
2022-10-15T05:55:59.902Z,89.22
2022-10-15T05:58:27.449Z,89.72
2022-10-15T06:00:57.893Z,90.50
2022-10-15T06:03:24.798Z,91.64
2022-10-15T06:05:51.283Z,91.21
2022-10-15T06:08:17.907Z,90.37
2022-10-15T06:10:44.776Z,90.99
2022-10-15T06:13:11.650Z,92.19
2022-10-15T06:15:42.259Z,91.47
2022-10-15T06:18:09.270Z,91.76
2022-10-15T06:20:36.201Z,91.87
2022-10-15T06:23:04.912Z,92.12
2022-10-15T06:25:31.955Z,91.96
2022-10-15T06:28:02.976Z,90.99
2022-10-15T06:30:29.537Z,91.00
2022-10-15T06:32:56.535Z,90.81
2022-10-15T06:35:25.154Z,91.18
2022-10-15T06:37:51.673Z,91.68
2022-10-15T06:40:18.983Z,91.93
2022-10-15T06:42:45.913Z,91.82
2022-10-15T06:45:13.467Z,91.23
2022-10-15T06:47:41.367Z,91.29
2022-10-15T06:50:08.310Z,89.93
2022-10-15T06:52:35.116Z,89.77
2022-10-15T06:55:01.805Z,88.99
2022-10-15T06:57:29.660Z,88.09
2022-10-15T06:59:56.263Z,87.98
2022-10-15T07:02:23.660Z,86.89
2022-10-15T07:04:51.510Z,86.06
2022-10-15T07:07:18.061Z,87.60
2022-10-15T07:09:44.501Z,86.28
2022-10-15T07:12:10.965Z,84.98
2022-10-15T07:14:40.083Z,84.85
2022-10-15T07:17:08.835Z,82.92
2022-10-15T07:19:35.291Z,83.32
2022-10-15T07:22:01.788Z,82.42
2022-10-15T07:24:28.235Z,81.49
2022-10-15T07:26:54.677Z,81.63
2022-10-15T07:29:21.741Z,81.32
2022-10-15T07:31:48.273Z,80.69
2022-10-15T07:34:14.748Z,80.54
2022-10-15T07:36:41.241Z,79.96
2022-10-15T07:39:09.110Z,79.33
2022-10-15T07:41:35.731Z,78.25
2022-10-15T07:44:02.435Z,77.16
2022-10-15T07:46:29.283Z,77.04
2022-10-15T07:48:55.891Z,77.48
2022-10-15T07:51:22.427Z,78.40
2022-10-15T07:53:48.879Z,78.29
2022-10-15T07:56:15.835Z,77.94
2022-10-15T07:58:42.660Z,78.83
2022-10-15T08:01:10.945Z,78.36
2022-10-15T08:03:38.061Z,78.05
2022-10-15T08:06:06.353Z,78.13
2022-10-15T08:08:34.011Z,76.32
2022-10-15T08:11:18.992Z,75.08
2022-10-15T08:13:45.673Z,75.84
2022-10-15T08:16:14.224Z,74.79
2022-10-15T08:18:40.751Z,75.02
2022-10-15T08:21:08.088Z,73.29
2022-10-15T08:23:35.188Z,72.60
2022-10-15T08:26:02.041Z,72.89
2022-10-15T08:28:29.299Z,71.65
2022-10-15T08:31:02.634Z,72.22
2022-10-15T08:33:32.357Z,72.70
2022-10-15T08:35:59.154Z,71.32
2022-10-15T08:38:26.133Z,71.37
2022-10-15T08:40:55.433Z,70.18
2022-10-15T08:43:27.420Z,71.32
2022-10-15T08:45:57.292Z,71.98
2022-10-15T08:48:27.775Z,71.56
2022-10-15T08:50:56.716Z,71.98
2022-10-15T08:53:24.201Z,72.19
2022-10-15T08:55:55.334Z,70.24
2022-10-15T08:58:24.922Z,69.93
2022-10-15T09:00:58.842Z,69.67
2022-10-15T09:03:34.253Z,70.11
2022-10-15T09:06:10.030Z,71.15
2022-10-15T09:08:53.466Z,70.75
2022-10-15T09:12:02.456Z,72.10
2022-10-15T09:14:38.761Z,71.14
2022-10-15T09:17:20.250Z,70.07
2022-10-15T09:19:50.111Z,68.97
2022-10-15T09:22:17.871Z,66.44
2022-10-15T09:24:45.383Z,67.16
2022-10-15T09:27:37.089Z,67.51
2022-10-15T09:30:22.366Z,65.55
2022-10-15T09:32:55.819Z,65.41
2022-10-15T09:35:22.841Z,65.51
2022-10-15T09:37:54.512Z,61.56
2022-10-15T09:40:48.800Z,62.13
2022-10-15T09:43:20.241Z,61.46
2022-10-15T09:45:46.760Z,63.13
2022-10-15T09:48:18.167Z,62.31
2022-10-15T09:50:52.544Z,63.05
2022-10-15T09:53:48.233Z,64.00
2022-10-15T09:56:27.663Z,63.02
2022-10-15T09:58:58.551Z,64.21
2022-10-15T10:01:29.073Z,64.86
2022-10-15T10:04:14.259Z,63.94
2022-10-15T10:06:51.376Z,64.20
2022-10-15T10:09:40.451Z,64.57
2022-10-15T10:12:08.860Z,63.30
2022-10-15T10:14:40.457Z,64.42
2022-10-15T10:17:14.471Z,62.71
2022-10-15T10:19:40.962Z,61.20
2022-10-15T10:22:19.921Z,62.41
2022-10-15T10:24:47.209Z,62.76
2022-10-15T10:27:25.645Z,65.34
2022-10-15T10:29:55.776Z,64.54
2022-10-15T10:32:27.636Z,64.76
2022-10-15T10:34:54.484Z,65.24
2022-10-15T10:37:21.621Z,66.28
2022-10-15T10:39:59.145Z,66.29
2022-10-15T10:42:31.233Z,65.71
2022-10-15T10:45:14.022Z,64.97
2022-10-15T10:47:42.921Z,62.76
2022-10-15T10:50:33.282Z,63.47
2022-10-15T10:53:14.661Z,62.90
2022-10-15T10:55:42.353Z,61.30
2022-10-15T10:58:16.144Z,61.65
2022-10-15T11:00:44.907Z,62.74
2022-10-15T11:03:23.358Z,61.93
2022-10-15T11:05:56.370Z,61.93
2022-10-15T11:08:37.532Z,61.38
2022-10-15T11:11:24.498Z,61.60
2022-10-15T11:14:06.229Z,62.50
2022-10-15T11:16:54.341Z,63.26
2022-10-15T11:20:12.159Z,64.30
2022-10-15T11:22:47.872Z,63.87
2022-10-15T11:25:36.599Z,63.77
2022-10-15T11:28:40.897Z,65.62
2022-10-15T11:31:44.049Z,66.75
2022-10-15T11:34:45.222Z,65.59
2022-10-15T11:37:11.683Z,65.02
2022-10-15T11:40:14.926Z,66.01
2022-10-15T11:42:53.901Z,64.80
2022-10-15T11:45:42.251Z,66.27
2022-10-15T11:48:25.950Z,65.05
2022-10-15T11:50:59.952Z,64.13
2022-10-15T11:53:45.048Z,65.48
2022-10-15T11:56:33.733Z,64.07
2022-10-15T11:59:36.649Z,65.04
2022-10-15T12:02:13.551Z,64.54
2022-10-15T12:04:46.008Z,64.99
2022-10-15T12:07:22.106Z,64.17
2022-10-15T12:09:53.025Z,64.38
2022-10-15T12:12:27.565Z,63.30
2022-10-15T12:15:07.853Z,63.74
2022-10-15T12:17:46.666Z,64.37
2022-10-15T12:20:16.046Z,64.57
2022-10-15T12:23:00.268Z,64.14
2022-10-15T12:25:35.929Z,64.67
2022-10-15T12:28:05.266Z,65.14
2022-10-15T12:30:36.072Z,64.10
2022-10-15T12:33:03.844Z,63.49
2022-10-15T12:35:38.624Z,62.69
2022-10-15T12:38:19.445Z,61.33
2022-10-15T12:40:46.186Z,62.20
2022-10-15T12:43:15.415Z,61.87
2022-10-15T12:45:54.327Z,62.21
2022-10-15T12:48:28.231Z,61.95
2022-10-15T12:51:14.587Z,61.82
2022-10-15T12:53:45.612Z,61.54
2022-10-15T12:56:18.204Z,61.85
2022-10-15T12:58:44.649Z,62.17
2022-10-15T13:01:13.970Z,62.24
2022-10-15T13:03:49.198Z,60.60
2022-10-15T13:06:21.686Z,61.51
2022-10-15T13:09:09.623Z,60.88
2022-10-15T13:11:56.126Z,61.31
2022-10-15T13:14:36.992Z,60.49
2022-10-15T13:17:15.906Z,60.85
2022-10-15T13:19:57.067Z,59.13
2022-10-15T13:22:28.287Z,59.40
2022-10-15T13:24:54.875Z,59.30
2022-10-15T13:27:36.843Z,59.70
2022-10-15T13:30:06.829Z,60.64
2022-10-15T13:32:37.173Z,60.74
2022-10-15T13:35:10.139Z,60.97
2022-10-15T13:37:38.549Z,61.04
2022-10-15T13:40:08.014Z,61.56
2022-10-15T13:42:35.008Z,60.40
2022-10-15T13:45:17.000Z,60.88
2022-10-15T13:47:51.452Z,60.59
2022-10-15T13:50:30.769Z,57.91
2022-10-15T13:52:59.222Z,57.88
2022-10-15T13:55:28.864Z,59.47
2022-10-15T13:58:01.422Z,60.21
2022-10-15T14:00:31.939Z,59.34
2022-10-15T14:03:13.757Z,58.46
2022-10-15T14:05:40.310Z,59.15
2022-10-15T14:08:15.373Z,60.70
2022-10-15T14:10:41.946Z,59.47
2022-10-15T14:13:10.541Z,60.21
2022-10-15T14:15:41.068Z,60.36
2022-10-15T14:18:07.893Z,60.19
2022-10-15T14:20:34.370Z,60.30
2022-10-15T14:23:00.856Z,60.32
2022-10-15T14:25:27.512Z,59.37
2022-10-15T14:27:54.112Z,59.11
2022-10-15T14:30:30.118Z,58.14
2022-10-15T14:32:56.684Z,57.86
2022-10-15T14:35:34.490Z,58.30
2022-10-15T14:38:03.988Z,58.02
2022-10-15T14:40:30.912Z,58.35
2022-10-15T14:43:15.198Z,58.22
2022-10-15T14:45:50.865Z,58.52
2022-10-15T14:48:48.983Z,57.11
2022-10-15T14:51:21.215Z,58.23
2022-10-15T14:53:48.338Z,57.08
2022-10-15T14:56:19.405Z,57.53
2022-10-15T14:58:51.807Z,56.83
2022-10-15T15:01:19.275Z,56.36
2022-10-15T15:03:51.589Z,56.20
2022-10-15T15:06:18.327Z,55.97
2022-10-15T15:08:45.593Z,56.65
2022-10-15T15:11:15.698Z,56.21
2022-10-15T15:13:43.646Z,55.63
2022-10-15T15:16:12.588Z,56.72
2022-10-15T15:18:39.281Z,56.29
2022-10-15T15:21:07.105Z,56.73
2022-10-15T15:23:34.006Z,56.78
2022-10-15T15:26:01.082Z,56.94
2022-10-15T15:28:28.281Z,57.49
2022-10-15T15:31:00.341Z,58.70
2022-10-15T15:33:27.923Z,59.45
2022-10-15T15:36:09.344Z,60.10
2022-10-15T15:41:10.482Z,59.67
2022-10-15T15:43:37.360Z,60.43
2022-10-15T15:46:04.077Z,60.64
2022-10-15T15:48:30.589Z,60.60
2022-10-15T15:51:00.045Z,58.87
2022-10-15T15:53:26.511Z,59.22
2022-10-15T15:55:57.808Z,60.75
2022-10-15T15:58:24.487Z,59.96
2022-10-15T16:00:54.291Z,59.92
2022-10-15T16:03:20.658Z,60.21
2022-10-15T16:05:47.255Z,61.43
2022-10-15T16:08:14.004Z,61.03
2022-10-15T16:10:40.588Z,61.30
2022-10-15T16:13:07.496Z,63.21
2022-10-15T16:15:34.093Z,63.53
2022-10-15T16:18:00.544Z,63.40
2022-10-15T16:20:27.261Z,63.79
2022-10-15T16:22:54.041Z,64.06
2022-10-15T16:25:21.875Z,64.17
2022-10-15T16:27:51.686Z,64.60
2022-10-15T16:30:18.825Z,64.35
2022-10-15T16:32:45.653Z,65.36
2022-10-15T16:35:12.181Z,65.33
2022-10-15T16:37:41.633Z,65.58
2022-10-15T16:40:08.598Z,66.43
2022-10-15T16:42:38.055Z,65.38
2022-10-15T16:45:05.064Z,66.86
2022-10-15T16:47:31.578Z,68.04
2022-10-15T16:49:58.031Z,67.39
2022-10-15T16:52:24.954Z,67.42
2022-10-15T16:54:51.586Z,66.71
2022-10-15T16:57:18.195Z,66.91
2022-10-15T16:59:44.661Z,67.34
2022-10-15T17:02:13.718Z,67.23
2022-10-15T17:04:40.403Z,67.46
2022-10-15T17:07:06.974Z,65.89
2022-10-15T17:09:33.541Z,67.75
2022-10-15T17:12:00.017Z,67.07
2022-10-15T17:14:26.576Z,66.61
2022-10-15T17:16:53.273Z,66.86
2022-10-15T17:19:27.750Z,66.87
2022-10-15T17:22:00.171Z,67.54
2022-10-15T17:24:26.924Z,66.76
2022-10-15T17:26:53.443Z,67.69
2022-10-15T17:29:20.991Z,67.99
2022-10-15T17:31:49.055Z,67.98
2022-10-15T17:34:16.635Z,68.29
2022-10-15T17:36:45.760Z,68.24
2022-10-15T17:39:14.911Z,68.51
2022-10-15T17:41:43.162Z,69.95
2022-10-15T17:44:10.111Z,69.64
2022-10-15T17:46:36.669Z,70.34
2022-10-15T17:49:03.956Z,69.48
2022-10-15T17:51:31.759Z,70.12
2022-10-15T17:53:59.479Z,70.70
2022-10-15T17:56:31.103Z,69.86
2022-10-15T17:58:58.524Z,69.28
2022-10-15T18:01:56.644Z,71.01
2022-10-15T18:04:18.186Z,70.58
2022-10-15T18:06:45.202Z,70.17
2022-10-15T18:09:12.490Z,69.97
2022-10-15T18:11:39.412Z,70.91
2022-10-15T18:14:05.979Z,72.02
2022-10-15T18:16:32.721Z,71.99
2022-10-15T18:18:59.363Z,70.70
2022-10-15T18:21:26.265Z,70.68
2022-10-15T18:23:52.800Z,70.66
2022-10-15T18:26:21.058Z,71.15
2022-10-15T18:28:49.374Z,72.57
2022-10-15T18:31:16.480Z,73.55
2022-10-15T18:33:44.463Z,72.43
2022-10-15T18:36:32.203Z,71.89
2022-10-15T18:38:59.460Z,71.84
2022-10-15T18:41:31.392Z,71.33
2022-10-15T18:44:11.793Z,71.21
2022-10-15T18:46:38.600Z,71.67
2022-10-15T18:49:05.502Z,72.63
2022-10-15T18:51:34.369Z,72.92
2022-10-15T18:54:00.988Z,73.20
2022-10-15T18:56:27.631Z,73.67
2022-10-15T18:58:54.634Z,73.40
2022-10-15T19:01:31.493Z,72.44
2022-10-15T19:04:01.138Z,72.99
2022-10-15T19:06:31.570Z,72.82
2022-10-15T19:08:59.223Z,73.32
2022-10-15T19:11:26.368Z,73.38
2022-10-15T19:13:53.242Z,73.44
2022-10-15T19:16:19.879Z,72.75
2022-10-15T19:18:47.824Z,73.21
2022-10-15T19:21:14.464Z,73.97
2022-10-15T19:23:40.953Z,73.91
2022-10-15T19:26:09.439Z,73.70
2022-10-15T19:28:36.946Z,73.98
2022-10-15T19:31:05.403Z,74.22
2022-10-15T19:33:32.618Z,74.27
2022-10-15T19:35:59.563Z,74.68
2022-10-15T19:38:26.889Z,73.57
2022-10-15T19:40:54.225Z,74.07
2022-10-15T19:43:21.707Z,74.56
2022-10-15T19:45:49.034Z,73.93
2022-10-15T19:48:18.395Z,73.54
2022-10-15T19:50:46.048Z,73.38
2022-10-15T19:53:14.877Z,73.86
2022-10-15T19:55:41.433Z,74.25
2022-10-15T19:58:09.161Z,73.92
2022-10-15T20:00:36.288Z,73.65
2022-10-15T20:03:02.889Z,73.32
2022-10-15T20:05:29.412Z,73.00
2022-10-15T20:07:55.965Z,73.24
2022-10-15T20:10:25.947Z,74.53
2022-10-15T20:12:53.196Z,74.58
2022-10-15T20:15:20.383Z,74.06
2022-10-15T20:17:47.172Z,73.92
2022-10-15T20:20:13.928Z,73.32
2022-10-15T20:22:40.425Z,73.83
2022-10-15T20:25:07.252Z,73.71
2022-10-15T20:27:33.997Z,73.13
2022-10-15T20:30:00.639Z,73.61
2022-10-15T20:32:34.563Z,73.53
2022-10-15T20:35:02.464Z,75.09
2022-10-15T20:37:28.979Z,74.58
2022-10-15T20:42:27.263Z,75.02
2022-10-15T20:44:54.315Z,74.08
2022-10-15T20:47:21.075Z,74.82
2022-10-15T20:49:50.091Z,74.14
2022-10-15T20:52:16.842Z,74.24
2022-10-15T20:54:43.785Z,74.31
2022-10-15T20:57:10.657Z,73.99
2022-10-15T20:59:37.207Z,75.19
2022-10-15T21:02:03.948Z,75.16
2022-10-15T21:04:30.416Z,75.10
2022-10-15T21:06:56.907Z,74.26
2022-10-15T21:09:24.030Z,73.64
2022-10-15T21:11:50.600Z,73.68
2022-10-15T21:14:17.152Z,73.22
2022-10-15T21:16:43.674Z,73.16
2022-10-15T21:19:10.312Z,72.22
2022-10-15T21:21:39.296Z,72.02
2022-10-15T21:24:07.680Z,71.91
2022-10-15T21:26:34.167Z,70.67
2022-10-15T21:29:00.796Z,70.60
2022-10-15T21:31:27.717Z,72.00
2022-10-15T21:33:55.119Z,71.68
2022-10-15T21:36:23.843Z,71.37
2022-10-15T21:39:00.722Z,70.45
2022-10-15T21:41:29.028Z,71.45
2022-10-15T21:43:55.684Z,71.65
2022-10-15T21:46:22.592Z,69.61
2022-10-15T21:48:49.705Z,70.50
2022-10-15T21:51:21.212Z,71.25
2022-10-15T21:53:48.016Z,71.46
2022-10-15T21:56:14.672Z,71.09
2022-10-15T21:58:41.751Z,70.97
2022-10-15T22:01:09.511Z,70.52
2022-10-15T22:03:36.609Z,71.86
2022-10-15T22:06:04.259Z,71.03
2022-10-15T22:08:31.784Z,70.95
2022-10-15T22:11:16.355Z,69.90
2022-10-15T22:13:44.332Z,68.51
2022-10-15T22:16:11.134Z,68.59
2022-10-15T22:18:37.899Z,70.23
2022-10-15T22:21:12.826Z,69.36
2022-10-15T22:23:39.819Z,69.37
2022-10-15T22:26:06.414Z,70.17
2022-10-15T22:28:33.392Z,70.18
2022-10-15T22:31:04.906Z,70.77
2022-10-15T22:33:31.692Z,70.05
2022-10-15T22:36:03.341Z,68.13
2022-10-15T22:38:29.901Z,68.50
2022-10-15T22:40:56.435Z,70.02
2022-10-15T22:43:23.140Z,70.13
2022-10-15T22:45:49.786Z,69.14
2022-10-15T22:48:16.357Z,69.68
2022-10-15T22:50:42.803Z,69.93
2022-10-15T22:53:09.248Z,70.09
2022-10-15T22:55:36.277Z,69.57
2022-10-15T22:58:03.300Z,69.73
2022-10-15T23:00:29.986Z,70.31
2022-10-15T23:02:56.540Z,70.18
2022-10-15T23:05:23.048Z,70.21
2022-10-15T23:07:49.516Z,71.37
2022-10-15T23:10:16.024Z,71.48
2022-10-15T23:12:42.517Z,72.58
2022-10-15T23:15:09.878Z,72.78
2022-10-15T23:17:36.474Z,72.98
2022-10-15T23:20:03.048Z,72.42
2022-10-15T23:22:30.074Z,72.35
2022-10-15T23:24:56.708Z,72.43
2022-10-15T23:27:23.459Z,72.35
2022-10-15T23:29:57.012Z,73.01
2022-10-15T23:32:34.160Z,73.15
2022-10-15T23:35:00.700Z,73.84
2022-10-15T23:37:27.838Z,74.15
2022-10-15T23:39:54.603Z,74.61
2022-10-15T23:42:21.353Z,73.77
2022-10-15T23:44:48.231Z,74.42
2022-10-15T23:47:14.778Z,74.14
2022-10-15T23:49:42.079Z,74.88
2022-10-15T23:52:08.805Z,74.69
2022-10-15T23:54:35.710Z,74.11
2022-10-15T23:57:02.443Z,73.68
2022-10-15T23:59:29.006Z,73.57
